Time;durP1;ratioP1;P1;durP2;ratioP2;P2;SDS_P1;SDS_P2;PMS_P1;PMS_P2;Temp;Humidity;BMP_temperature;BMP_pressure;BME280_temperature;BME280_humidity;BME280_pressure;Samples;Min_cycle;Max_cycle;Signal;HPM_P1;HPM_P2
2023/05/26 05:02:28;;;;;;;11.65;5.85;;;15.00;92.30;;;;;;5437165;23;20258;-70
2023/05/26 05:04:57;;;;;;;11.10;5.63;;;15.00;92.30;;;;;;4872168;29;20342;-70
2023/05/26 05:07:23;;;;;;;13.73;5.90;;;15.00;92.30;;;;;;4856334;29;20049;-70
2023/05/26 05:09:49;;;;;;;10.45;5.55;;;14.90;92.30;;;;;;4860959;29;20334;-70
2023/05/26 05:12:15;;;;;;;9.98;5.78;;;14.90;92.10;;;;;;4864779;29;20045;-71
2023/05/26 05:14:41;;;;;;;9.18;5.85;;;14.90;92.20;;;;;;4875234;29;20096;-71
2023/05/26 05:17:07;;;;;;;12.25;5.95;;;14.80;92.50;;;;;;4891475;29;20028;-70
2023/05/26 05:19:33;;;;;;;10.68;5.28;;;14.90;92.50;;;;;;4861771;29;20338;-70
2023/05/26 05:21:59;;;;;;;13.20;5.80;;;14.90;92.40;;;;;;4891583;29;20037;-71
2023/05/26 05:24:26;;;;;;;12.85;5.78;;;14.80;92.50;;;;;;4874933;29;20361;-71
2023/05/26 05:26:52;;;;;;;15.13;5.70;;;14.90;92.50;;;;;;4891459;29;20099;-71
2023/05/26 05:29:20;;;;;;;;;;;14.90;92.40;;;;;;4875180;29;20266;-70
2023/05/26 05:31:48;;;;;;;11.73;5.53;;;14.90;92.50;;;;;;4891577;29;19919;-71
2023/05/26 05:34:14;;;;;;;14.13;5.68;;;15.00;92.50;;;;;;4890941;29;20057;-72
2023/05/26 05:36:41;;;;;;;8.15;5.50;;;15.00;92.30;;;;;;4865630;29;20077;-70
2023/05/26 05:39:07;;;;;;;10.65;5.88;;;15.10;92.50;;;;;;4874488;29;20032;-70
2023/05/26 05:41:33;;;;;;;13.00;5.70;;;15.10;92.30;;;;;;4874923;29;20367;-72
2023/05/26 05:43:59;;;;;;;13.88;6.47;;;15.10;92.40;;;;;;4875005;29;20032;-70
2023/05/26 05:46:26;;;;;;;9.43;6.07;;;15.10;92.50;;;;;;4874263;29;20073;-72
2023/05/26 05:48:56;;;;;;;12.55;5.88;;;15.10;92.50;;;;;;4874737;29;20031;-70
2023/05/26 05:51:27;;;;;;;11.20;5.78;;;15.10;92.30;;;;;;4874648;29;20037;-70
2023/05/26 05:53:53;;;;;;;12.45;6.43;;;15.20;92.10;;;;;;4874687;29;20072;-72
2023/05/26 05:56:19;;;;;;;11.77;5.90;;;15.30;92.10;;;;;;4872356;29;20053;-70
2023/05/26 05:58:46;;;;;;;14.40;6.78;;;15.30;91.80;;;;;;4856101;29;20250;-72
2023/05/26 06:01:13;;;;;;;13.88;6.93;;;15.30;91.70;;;;;;4855276;29;20033;-72
2023/05/26 06:03:39;;;;;;;9.75;6.05;;;15.30;91.80;;;;;;4843845;29;20076;-72
2023/05/26 06:06:05;;;;;;;11.25;6.38;;;15.40;91.70;;;;;;4852811;29;20086;-70
2023/05/26 06:08:31;;;;;;;12.45;6.28;;;15.50;91.70;;;;;;4852857;29;20079;-69
2023/05/26 06:10:56;;;;;;;13.23;6.35;;;15.60;91.70;;;;;;4854630;29;20048;-69
2023/05/26 06:13:22;;;;;;;13.23;6.50;;;15.70;91.60;;;;;;4852690;29;20072;-70
2023/05/26 06:15:48;;;;;;;15.82;6.50;;;15.70;91.30;;;;;;4855499;29;20037;-72
2023/05/26 06:18:15;;;;;;;11.38;5.70;;;15.80;91.50;;;;;;4855272;29;20303;-71
2023/05/26 06:20:40;;;;;;;11.27;6.43;;;15.90;91.10;;;;;;4855514;29;20073;-72
2023/05/26 06:23:06;;;;;;;10.35;5.78;;;16.10;91.10;;;;;;4864263;29;20026;-71
2023/05/26 06:25:32;;;;;;;11.55;5.88;;;16.20;90.50;;;;;;4855469;29;20334;-71
2023/05/26 06:27:58;;;;;;;12.50;6.00;;;16.30;90.30;;;;;;4851865;29;20024;-71
2023/05/26 06:30:24;;;;;;;12.10;6.00;;;16.30;90.30;;;;;;4853383;29;20215;-71
2023/05/26 06:32:57;;;;;;;10.98;6.07;;;16.40;90.10;;;;;;4847519;29;20222;-71
2023/05/26 06:35:24;;;;;;;20.77;6.82;;;16.40;90.30;;;;;;4854935;29;20037;-71
2023/05/26 06:37:50;;;;;;;15.77;6.15;;;16.50;90.20;;;;;;4855205;29;20264;-72
2023/05/26 06:40:16;;;;;;;10.38;5.88;;;16.60;90.10;;;;;;4831926;29;20093;-71
2023/05/26 06:42:42;;;;;;;11.68;5.63;;;16.70;88.90;;;;;;4855190;29;20082;-71
2023/05/26 06:45:08;;;;;;;10.45;5.32;;;16.80;89.10;;;;;;4854534;29;20029;-71
2023/05/26 06:47:36;;;;;;;11.43;6.03;;;16.90;89.10;;;;;;4839928;29;20222;-71
2023/05/26 06:50:15;;;;;;;12.63;5.95;;;16.90;88.30;;;;;;4845867;29;20022;-71
2023/05/26 06:52:44;;;;;;;12.05;6.22;;;17.00;88.40;;;;;;4836684;29;20226;-71
2023/05/26 06:55:10;;;;;;;12.55;6.00;;;17.10;88.60;;;;;;4838055;29;20057;-71
2023/05/26 06:57:35;;;;;;;11.13;6.32;;;17.10;88.60;;;;;;4854760;29;20068;-72
2023/05/26 07:00:02;;;;;;;12.13;6.32;;;17.10;88.70;;;;;;4855055;29;20036;-73
2023/05/26 07:02:28;;;;;;;14.85;6.25;;;17.20;88.50;;;;;;4870634;29;20073;-70
2023/05/26 07:05:10;;;;;;;11.88;5.90;;;17.20;88.00;;;;;;4854305;29;20041;-71
2023/05/26 07:07:36;;;;;;;14.18;7.03;;;17.20;87.70;;;;;;4870311;29;20109;-71
2023/05/26 07:10:02;;;;;;;11.60;6.15;;;17.20;87.60;;;;;;4871324;29;20037;-71
2023/05/26 07:12:30;;;;;;;12.88;6.20;;;17.20;88.00;;;;;;4854852;29;20214;-70
2023/05/26 07:15:05;;;;;;;11.70;6.30;;;17.20;87.80;;;;;;4853692;29;20025;-71
2023/05/26 07:17:31;;;;;;;13.43;5.97;;;17.10;87.30;;;;;;4854211;29;20302;-70
2023/05/26 07:19:57;;;;;;;10.98;5.97;;;17.20;88.00;;;;;;4854535;29;20097;-74
2023/05/26 07:22:23;;;;;;;10.13;5.80;;;17.40;86.30;;;;;;4870638;29;20164;-71
2023/05/26 07:25:09;;;;;;;10.23;6.25;;;17.60;86.70;;;;;;4853783;29;20104;-72
2023/05/26 07:27:42;;;;;;;18.80;7.05;;;17.70;85.70;;;;;;4845337;29;20239;-71
2023/05/26 07:30:09;;;;;;;10.45;5.85;;;17.70;85.60;;;;;;4845605;29;20037;-72
2023/05/26 07:32:42;;;;;;;11.40;6.55;;;17.90;86.40;;;;;;4854627;29;20041;-72
2023/05/26 07:35:08;;;;;;;17.15;6.40;;;17.90;85.20;;;;;;4853671;29;20323;-73
2023/05/26 07:37:34;;;;;;;13.48;6.10;;;18.00;85.40;;;;;;4854165;29;20033;-72
2023/05/26 07:39:59;;;;;;;13.15;6.10;;;18.00;84.40;;;;;;4870755;29;20043;-71
2023/05/26 07:42:25;;;;;;;12.68;6.28;;;18.10;84.60;;;;;;4870192;29;20386;-72
2023/05/26 07:44:51;;;;;;;12.50;5.97;;;18.20;84.50;;;;;;4870399;29;20311;-71
2023/05/26 07:47:17;;;;;;;12.05;6.30;;;18.20;84.80;;;;;;4870114;29;20041;-72
2023/05/26 07:49:42;;;;;;;12.73;6.25;;;18.30;85.00;;;;;;4870416;29;20371;-73
2023/05/26 07:52:08;;;;;;;10.13;5.95;;;18.20;84.40;;;;;;4870003;29;20049;-73
2023/05/26 07:54:34;;;;;;;15.45;6.50;;;18.20;84.70;;;;;;4853910;29;20045;-71
2023/05/26 07:56:59;;;;;;;11.07;6.35;;;18.20;85.20;;;;;;4853713;29;20021;-72
2023/05/26 07:59:25;;;;;;;13.15;5.80;;;18.20;84.50;;;;;;4856925;29;20283;-74
2023/05/26 08:01:51;;;;;;;9.65;6.05;;;18.40;85.10;;;;;;4851327;29;20384;-73
2023/05/26 08:04:17;;;;;;;12.45;6.45;;;18.60;84.10;;;;;;4868769;29;20044;-74
2023/05/26 08:06:42;;;;;;;11.00;6.10;;;18.60;84.10;;;;;;4853776;29;20109;-73
2023/05/26 08:09:10;;;;;;;13.32;5.85;;;18.70;84.10;;;;;;4868132;29;20045;-71
2023/05/26 08:11:36;;;;;;;14.13;6.13;;;18.70;84.30;;;;;;4867432;29;20260;-73
2023/05/26 08:14:02;;;;;;;15.27;6.20;;;19.00;84.30;;;;;;4869909;29;20029;-71
2023/05/26 08:16:28;;;;;;;14.57;5.68;;;18.90;83.60;;;;;;4869738;29;20045;-74
2023/05/26 08:18:54;;;;;;;16.05;6.68;;;18.90;83.10;;;;;;4856599;29;20238;-71
2023/05/26 08:21:19;;;;;;;11.63;6.65;;;19.00;84.10;;;;;;4875397;29;20371;-71
2023/05/26 08:23:46;;;;;;;10.52;5.93;;;19.10;82.00;;;;;;4875934;29;20252;-71
2023/05/26 08:26:11;;;;;;;14.73;7.00;;;19.00;83.00;;;;;;4875987;29;20037;-74
2023/05/26 08:28:37;;;;;;;10.95;6.60;;;19.00;82.90;;;;;;4876129;29;20025;-70
2023/05/26 08:31:03;;;;;;;15.27;6.45;;;19.10;83.40;;;;;;4856359;29;20048;-72
2023/05/26 08:33:29;;;;;;;10.68;7.07;;;19.30;82.90;;;;;;4859809;29;20037;-71
2023/05/26 08:35:55;;;;;;;11.10;6.85;;;19.30;82.70;;;;;;4873398;29;20065;-70
2023/05/26 08:38:20;;;;;;;11.52;6.45;;;19.30;83.10;;;;;;4875846;29;20034;-71
2023/05/26 08:40:50;;;;;;;11.38;5.95;;;19.40;83.40;;;;;;4859580;29;20037;-70
2023/05/26 08:43:21;;;;;;;11.75;6.18;;;19.40;83.40;;;;;;4875345;29;20112;-71
2023/05/26 08:45:49;;;;;;;11.05;5.47;;;19.50;82.90;;;;;;4866586;29;20034;-72
2023/05/26 08:48:16;;;;;;;9.70;5.63;;;19.60;83.30;;;;;;4873215;29;20045;-71
2023/05/26 08:50:43;;;;;;;11.43;6.17;;;19.70;82.00;;;;;;4860426;29;20038;-71
2023/05/26 08:53:10;;;;;;;10.82;6.18;;;19.70;81.60;;;;;;4875694;29;20218;-70
2023/05/26 08:55:36;;;;;;;14.25;5.90;;;19.70;80.60;;;;;;4876314;29;20323;-70
2023/05/26 08:58:03;;;;;;;11.63;7.13;;;19.70;81.70;;;;;;4876081;29;20153;-70
2023/05/26 09:00:35;;;;;;;12.90;6.28;;;19.80;81.20;;;;;;4875784;29;20029;-71
2023/05/26 09:03:02;;;;;;;10.07;5.68;;;19.90;81.10;;;;;;4875581;29;20057;-73
2023/05/26 09:05:31;;;;;;;12.82;6.25;;;19.90;81.90;;;;;;4875749;29;20361;-71
2023/05/26 09:07:57;;;;;;;11.27;6.35;;;20.00;81.30;;;;;;4875502;29;20102;-71
2023/05/26 09:10:25;;;;;;;10.38;5.93;;;20.10;81.60;;;;;;4875179;29;20423;-72
2023/05/26 09:13:07;;;;;;;15.43;5.82;;;20.30;81.20;;;;;;4875525;29;20218;-75
2023/05/26 09:15:37;;;;;;;11.30;5.65;;;20.50;80.70;;;;;;4875764;29;20041;-73
2023/05/26 09:18:07;;;;;;;12.15;6.00;;;20.50;79.70;;;;;;4875784;29;20100;-71
2023/05/26 09:20:34;;;;;;;11.30;5.38;;;20.30;79.30;;;;;;4875676;29;20047;-74
2023/05/26 09:23:00;;;;;;;10.40;5.82;;;20.50;80.70;;;;;;4875489;29;20065;-77
2023/05/26 09:25:31;;;;;;;14.52;5.90;;;20.60;79.90;;;;;;4875405;29;20208;-71
2023/05/26 09:28:04;;;;;;;16.25;6.47;;;20.60;79.90;;;;;;4875522;29;20041;-73
2023/05/26 09:30:41;;;;;;;9.70;5.60;;;20.60;79.30;;;;;;4872767;29;20045;-70
2023/05/26 09:33:11;;;;;;;9.07;5.10;;;20.50;79.00;;;;;;4871789;29;20101;-70
2023/05/26 09:35:39;;;;;;;14.70;5.80;;;20.60;79.30;;;;;;4873044;29;20041;-72
2023/05/26 09:38:07;;;;;;;16.80;4.93;;;20.80;80.20;;;;;;4872492;29;20081;-73
2023/05/26 09:40:33;;;;;;;11.90;5.43;;;20.90;79.80;;;;;;4872587;29;20089;-70
2023/05/26 09:42:59;;;;;;;11.00;6.20;;;21.10;80.20;;;;;;4872688;29;20041;-70
2023/05/26 09:45:26;;;;;;;11.50;5.50;;;21.10;78.10;;;;;;4871835;29;20038;-72
2023/05/26 09:47:58;;;;;;;12.18;5.55;;;21.10;78.30;;;;;;4872354;29;20071;-70
2023/05/26 09:50:24;;;;;;;14.52;5.30;;;21.10;78.50;;;;;;4871705;29;20049;-74
2023/05/26 09:52:50;;;;;;;8.10;5.25;;;21.10;78.60;;;;;;4872228;29;20033;-70
2023/05/26 09:55:19;;;;;;;12.27;5.50;;;21.30;77.60;;;;;;4871569;29;20077;-73
2023/05/26 09:57:46;;;;;;;10.25;5.32;;;21.30;78.20;;;;;;4855406;29;20219;-71
2023/05/26 10:00:16;;;;;;;11.80;5.43;;;21.40;78.20;;;;;;4853246;29;20061;-70
2023/05/26 10:02:43;;;;;;;11.50;6.50;;;21.40;77.20;;;;;;4852943;29;20057;-71
2023/05/26 10:05:09;;;;;;;12.07;5.65;;;21.40;77.70;;;;;;4852979;29;20121;-71
2023/05/26 10:07:37;;;;;;;11.15;5.80;;;21.50;77.50;;;;;;4853614;29;20041;-70
2023/05/26 10:10:03;;;;;;;11.15;5.38;;;21.60;77.60;;;;;;4861681;29;20029;-70
2023/05/26 10:12:31;;;;;;;16.98;6.03;;;21.70;78.00;;;;;;4855562;29;20045;-69
2023/05/26 10:14:57;;;;;;;9.90;5.65;;;21.90;77.80;;;;;;4871658;29;20251;-70
2023/05/26 10:17:25;;;;;;;12.60;5.63;;;21.90;77.50;;;;;;4871405;29;20041;-69
2023/05/26 10:19:52;;;;;;;11.02;5.93;;;22.10;77.90;;;;;;4865772;29;20041;-70
2023/05/26 10:22:36;;;;;;;12.00;5.38;;;22.40;77.40;;;;;;4871527;29;20064;-70
2023/05/26 10:25:25;;;;;;;9.30;5.40;;;22.40;76.60;;;;;;4859717;29;20078;-70
2023/05/26 10:28:06;;;;;;;9.20;5.32;;;22.50;76.40;;;;;;4871495;29;20311;-69
2023/05/26 10:30:32;;;;;;;13.38;5.40;;;22.50;76.90;;;;;;4871707;29;20270;-69
2023/05/26 10:33:19;;;;;;;10.98;6.20;;;22.60;77.20;;;;;;4871642;29;20033;-70
2023/05/26 10:35:56;;;;;;;8.02;4.72;;;22.70;74.70;;;;;;4862544;29;20041;-70
2023/05/26 10:38:36;;;;;;;13.40;4.72;;;22.70;75.40;;;;;;4859247;29;20030;-69
2023/05/26 10:41:02;;;;;;;11.60;5.05;;;22.80;75.80;;;;;;4871421;29;20070;-69
2023/05/26 10:43:28;;;;;;;13.25;5.50;;;22.80;75.10;;;;;;4870455;29;20022;-71
2023/05/26 10:45:58;;;;;;;9.50;5.30;;;22.80;75.00;;;;;;4870846;29;20318;-70
2023/05/26 10:48:37;;;;;;;7.85;5.15;;;22.80;75.60;;;;;;4870667;29;20052;-71
2023/05/26 10:51:03;;;;;;;11.20;5.10;;;22.80;74.60;;;;;;4871011;29;20045;-70
2023/05/26 10:53:41;;;;;;;10.27;5.05;;;22.80;75.10;;;;;;4870962;29;20037;-70
2023/05/26 10:56:12;;;;;;;9.52;5.25;;;22.90;75.30;;;;;;4870356;29;20149;-70
2023/05/26 10:58:48;;;;;;;10.10;5.00;;;23.10;75.40;;;;;;4871139;29;20044;-71
2023/05/26 11:01:31;;;;;;;10.60;5.20;;;23.20;74.60;;;;;;4870421;29;20214;-70
2023/05/26 11:04:07;;;;;;;11.55;4.85;;;23.30;74.20;;;;;;4871127;29;20098;-70
2023/05/26 11:06:43;;;;;;;11.40;5.65;;;23.50;73.80;;;;;;4870750;29;20312;-71
2023/05/26 11:09:09;;;;;;;8.77;5.03;;;23.50;73.20;;;;;;4870387;29;20319;-70
2023/05/26 11:11:39;;;;;;;10.73;5.20;;;23.40;72.90;;;;;;4871100;29;20097;-70
2023/05/26 11:14:10;;;;;;;10.20;5.30;;;23.60;73.50;;;;;;4870332;29;20346;-70
2023/05/26 11:16:38;;;;;;;7.55;4.13;;;23.80;72.70;;;;;;4870982;29;20057;-71
2023/05/26 11:19:08;;;;;;;8.70;5.47;;;24.20;72.60;;;;;;4870564;29;20021;-71
2023/05/26 11:21:35;;;;;;;9.40;4.72;;;24.40;71.50;;;;;;4870397;29;20319;-70
2023/05/26 11:24:02;;;;;;;8.48;4.68;;;24.30;71.10;;;;;;4870547;29;20091;-71
2023/05/26 11:26:30;;;;;;;9.77;4.80;;;24.40;71.10;;;;;;4868821;29;20388;-70
2023/05/26 11:29:01;;;;;;;8.23;3.95;;;24.90;69.80;;;;;;4871106;29;20033;-72
2023/05/26 11:31:27;;;;;;;8.43;4.47;;;25.20;68.90;;;;;;4854205;29;20319;-72
2023/05/26 11:33:54;;;;;;;15.27;4.57;;;25.50;68.80;;;;;;4871001;29;20045;-69
2023/05/26 11:36:21;;;;;;;8.55;4.47;;;26.10;69.00;;;;;;4853750;29;20198;-70
2023/05/26 11:38:51;;;;;;;8.57;4.63;;;26.40;67.00;;;;;;4870562;29;20304;-70
2023/05/26 11:41:17;;;;;;;8.75;4.55;;;27.10;66.50;;;;;;4869846;29;20311;-70
2023/05/26 11:43:46;;;;;;;9.05;4.57;;;27.90;65.20;;;;;;4870482;29;20072;-70
2023/05/26 11:46:14;;;;;;;8.52;4.20;;;28.60;64.60;;;;;;4869748;29;20038;-74
2023/05/26 11:48:42;;;;;;;7.80;3.95;;;29.40;62.70;;;;;;4870058;29;20315;-70
2023/05/26 11:51:13;;;;;;;6.85;3.78;;;30.30;60.90;;;;;;4869764;29;20207;-73
2023/05/26 11:53:40;;;;;;;9.43;4.05;;;;;;;;;;4870118;29;20056;-71
2023/05/26 11:56:10;;;;;;;8.75;3.60;;;31.60;58.70;;;;;;4869227;29;20341;-72
2023/05/26 11:58:38;;;;;;;7.45;3.92;;;32.30;58.40;;;;;;4863384;29;20041;-73
2023/05/26 12:01:05;;;;;;;10.73;3.53;;;32.60;57.00;;;;;;4851509;29;20022;-72
2023/05/26 12:03:44;;;;;;;6.63;3.85;;;33.10;56.90;;;;;;4852014;29;20121;-72
2023/05/26 12:06:20;;;;;;;15.02;4.20;;;33.60;55.80;;;;;;4851159;29;20090;-73
2023/05/26 12:08:48;;;;;;;7.10;3.50;;;34.00;55.50;;;;;;4851776;29;20346;-73
2023/05/26 12:11:21;;;;;;;8.65;3.92;;;34.60;54.60;;;;;;4867922;29;20053;-73
2023/05/26 12:13:57;;;;;;;6.03;3.58;;;34.80;53.50;;;;;;4869906;29;20045;-71
2023/05/26 12:16:24;;;;;;;7.45;3.65;;;35.10;53.90;;;;;;4866664;29;20033;-72
2023/05/26 12:18:58;;;;;;;5.03;3.05;;;35.00;53.10;;;;;;4853682;29;20057;-72
2023/05/26 12:21:25;;;;;;;8.00;3.40;;;34.70;53.70;;;;;;4869549;29;20436;-72
2023/05/26 12:23:52;;;;;;;10.07;3.35;;;34.80;53.20;;;;;;4870125;29;20029;-72
2023/05/26 12:26:25;;;;;;;8.15;3.83;;;35.10;53.00;;;;;;4869617;29;20278;-71
2023/05/26 12:29:16;;;;;;;7.50;3.50;;;35.70;52.00;;;;;;4869808;29;20037;-71
2023/05/26 12:31:46;;;;;;;6.90;3.88;;;35.40;52.00;;;;;;4869755;29;20049;-72
2023/05/26 12:34:20;;;;;;;7.97;3.90;;;35.10;52.40;;;;;;4869646;29;20231;-71
2023/05/26 12:36:47;;;;;;;7.18;3.60;;;35.80;51.80;;;;;;4869906;29;20045;-72
2023/05/26 12:39:14;;;;;;;4.85;3.35;;;36.10;51.00;;;;;;4869160;29;20048;-70
2023/05/26 12:41:41;;;;;;;5.85;3.10;;;37.10;51.20;;;;;;4869817;29;20081;-71
2023/05/26 12:44:10;;;;;;;6.38;3.42;;;37.30;50.10;;;;;;4869385;29;20048;-71
2023/05/26 12:46:39;;;;;;;11.10;3.70;;;36.90;49.70;;;;;;4869421;29;20041;-70
2023/05/26 12:49:06;;;;;;;10.02;3.55;;;37.10;49.90;;;;;;4869213;29;20041;-71
2023/05/26 12:51:31;;;;;;;5.47;3.42;;;37.10;49.30;;;;;;4869889;29;20261;-70
2023/05/26 12:53:57;;;;;;;6.85;2.95;;;36.90;49.60;;;;;;4870925;29;20053;-70
2023/05/26 12:56:23;;;;;;;9.40;3.60;;;37.60;49.20;;;;;;4869446;29;20056;-70
2023/05/26 12:58:49;;;;;;;6.72;3.10;;;38.00;48.50;;;;;;4861602;29;20045;-70
2023/05/26 13:01:15;;;;;;;6.63;3.45;;;38.50;48.40;;;;;;4850805;29;20041;-71
2023/05/26 13:03:42;;;;;;;6.45;3.00;;;38.50;48.10;;;;;;4850771;29;20220;-71
2023/05/26 13:06:09;;;;;;;7.07;3.03;;;38.80;48.40;;;;;;4852613;29;20300;-71
2023/05/26 13:08:35;;;;;;;5.45;2.92;;;39.00;47.60;;;;;;4854514;29;20046;-71
2023/05/26 13:11:02;;;;;;;6.68;3.20;;;37.70;48.00;;;;;;4869898;29;20082;-71
2023/05/26 13:13:29;;;;;;;6.70;3.30;;;38.20;47.90;;;;;;4872354;29;20068;-71
2023/05/26 13:15:55;;;;;;;6.65;3.13;;;38.70;48.00;;;;;;4873082;29;20065;-71
2023/05/26 13:18:21;;;;;;;5.55;3.40;;;38.50;47.60;;;;;;4872769;29;20068;-71
2023/05/26 13:20:47;;;;;;;6.10;2.90;;;38.90;47.10;;;;;;4873206;29;20037;-71
2023/05/26 13:23:13;;;;;;;6.45;3.30;;;38.30;47.50;;;;;;4872667;29;20053;-71
2023/05/26 13:25:38;;;;;;;5.63;3.00;;;39.20;47.60;;;;;;4872662;29;20056;-71
2023/05/26 13:28:04;;;;;;;6.50;3.10;;;40.10;46.90;;;;;;4872664;29;20094;-72
2023/05/26 13:30:30;;;;;;;7.95;3.53;;;40.10;46.70;;;;;;4872716;29;20236;-71
2023/05/26 13:32:57;;;;;;;6.82;3.20;;;39.90;46.00;;;;;;4872794;29;20041;-71
2023/05/26 13:35:24;;;;;;;5.60;3.00;;;40.70;46.10;;;;;;4871822;29;20049;-71
2023/05/26 13:37:51;;;;;;;7.47;2.83;;;41.10;45.20;;;;;;4872693;29;20062;-70
2023/05/26 13:40:18;;;;;;;6.82;3.10;;;41.00;45.40;;;;;;4871799;29;20783;-71
2023/05/26 13:42:44;;;;;;;4.85;2.83;;;40.80;45.70;;;;;;4872456;29;20240;-71
2023/05/26 13:45:11;;;;;;;6.32;3.20;;;41.90;44.60;;;;;;4871805;29;20100;-71
2023/05/26 13:47:37;;;;;;;3.73;2.77;;;42.20;44.00;;;;;;4872073;29;20060;-70
2023/05/26 13:50:03;;;;;;;4.97;3.08;;;41.50;44.40;;;;;;4872627;29;20323;-71
2023/05/26 13:52:30;;;;;;;7.13;3.13;;;41.90;44.60;;;;;;4870345;29;20057;-71
2023/05/26 13:54:59;;;;;;;5.28;3.08;;;42.10;44.00;;;;;;4869539;29;20041;-71
2023/05/26 13:57:27;;;;;;;4.35;3.20;;;41.60;44.50;;;;;;4870138;29;20053;-70
2023/05/26 13:59:53;;;;;;;5.22;2.97;;;40.50;44.60;;;;;;4867633;29;20025;-69
2023/05/26 14:02:20;;;;;;;6.57;3.00;;;40.50;44.70;;;;;;4837108;29;20083;-70
2023/05/26 14:04:46;;;;;;;4.45;2.80;;;40.20;44.70;;;;;;4852779;29;20065;-71
2023/05/26 14:07:14;;;;;;;5.45;2.80;;;41.10;44.20;;;;;;4852046;29;20224;-71
2023/05/26 14:09:40;;;;;;;6.80;2.90;;;41.80;44.10;;;;;;4852386;29;20041;-71
2023/05/26 14:12:06;;;;;;;4.85;3.10;;;42.40;43.30;;;;;;4858647;29;20105;-70
2023/05/26 14:14:33;;;;;;;5.32;3.13;;;42.60;43.10;;;;;;4857426;29;20052;-70
2023/05/26 14:16:59;;;;;;;6.47;3.20;;;42.90;43.40;;;;;;4870579;29;20033;-70
2023/05/26 14:19:26;;;;;;;;;;;43.00;43.20;;;;;;4871116;29;20041;-70
2023/05/26 14:21:51;;;;;;;5.80;2.90;;;42.20;43.00;;;;;;4871009;29;19924;-72
2023/05/26 14:24:17;;;;;;;4.95;2.75;;;42.90;42.70;;;;;;4871030;29;20029;-72
2023/05/26 14:26:44;;;;;;;9.43;3.45;;;42.70;42.20;;;;;;4870564;29;20033;-71
2023/05/26 14:29:10;;;;;;;6.38;2.58;;;42.70;42.30;;;;;;4869825;29;20068;-72
2023/05/26 14:31:36;;;;;;;5.57;3.10;;;42.80;41.90;;;;;;4851388;29;20025;-72
2023/05/26 14:34:02;;;;;;;5.53;2.85;;;42.70;42.40;;;;;;4854271;29;20064;-70
2023/05/26 14:36:27;;;;;;;6.72;3.20;;;42.80;42.50;;;;;;4870159;29;20033;-70
2023/05/26 14:38:53;;;;;;;5.20;2.92;;;43.50;42.00;;;;;;4870755;29;20227;-70
2023/05/26 14:41:19;;;;;;;5.70;3.17;;;43.60;41.80;;;;;;4870287;29;20026;-74
2023/05/26 14:43:45;;;;;;;6.95;3.30;;;43.60;41.90;;;;;;4854286;29;20104;-74
2023/05/26 14:46:10;;;;;;;5.03;3.03;;;42.90;41.90;;;;;;4870056;29;20025;-73
2023/05/26 14:48:36;;;;;;;5.45;3.10;;;42.70;41.80;;;;;;4870727;29;20101;-73
2023/05/26 14:51:03;;;;;;;6.07;2.97;;;42.70;41.70;;;;;;4870862;29;20200;-70
2023/05/26 14:53:29;;;;;;;6.80;3.00;;;43.10;41.70;;;;;;4866294;29;20307;-70
2023/05/26 14:56:00;;;;;;;4.53;2.60;;;43.00;41.60;;;;;;4864813;29;20049;-75
2023/05/26 14:58:26;;;;;;;5.25;2.70;;;43.10;41.70;;;;;;4863838;29;20046;-70
2023/05/26 15:00:52;;;;;;;4.55;2.90;;;42.80;41.30;;;;;;4862367;29;20045;-74
2023/05/26 15:03:18;;;;;;;4.83;3.13;;;43.50;41.80;;;;;;4831059;29;1090572;-71
2023/05/26 15:05:44;;;;;;;6.40;3.15;;;43.50;41.40;;;;;;4852561;29;20030;-72
2023/05/26 15:08:10;;;;;;;5.00;3.20;;;43.50;41.70;;;;;;4851960;29;20033;-77
2023/05/26 15:10:36;;;;;;;5.10;3.33;;;43.70;41.00;;;;;;4836659;29;20223;-73
2023/05/26 15:13:02;;;;;;;6.70;3.07;;;43.20;41.30;;;;;;4852418;29;20062;-74
2023/05/26 15:15:28;;;;;;;4.65;3.60;;;43.30;41.30;;;;;;4852184;29;20309;-72
2023/05/26 15:17:54;;;;;;;6.70;3.00;;;43.30;41.40;;;;;;4852545;29;20029;-75
2023/05/26 15:20:25;;;;;;;5.82;2.78;;;43.10;41.30;;;;;;4852298;29;20079;-73
2023/05/26 15:22:52;;;;;;;5.20;2.92;;;42.70;41.50;;;;;;4852263;29;20320;-74
2023/05/26 15:25:18;;;;;;;7.75;3.00;;;42.90;41.60;;;;;;4851861;29;20279;-73
2023/05/26 15:27:44;;;;;;;5.00;3.30;;;43.50;41.40;;;;;;4852147;29;20125;-73
2023/05/26 15:30:10;;;;;;;5.88;3.35;;;42.80;41.10;;;;;;4851485;29;20046;-74
2023/05/26 15:32:36;;;;;;;5.55;3.38;;;42.60;41.60;;;;;;4852192;29;20059;-74
2023/05/26 15:35:02;;;;;;;7.15;3.40;;;43.40;41.10;;;;;;4852036;29;20042;-72
2023/05/26 15:37:27;;;;;;;5.60;2.97;;;43.50;41.20;;;;;;4851706;29;20033;-72
2023/05/26 15:39:53;;;;;;;5.22;2.83;;;43.60;40.60;;;;;;4851911;29;20034;-72
2023/05/26 15:42:19;;;;;;;5.80;3.33;;;43.30;40.80;;;;;;4851646;29;20050;-72
2023/05/26 15:44:45;;;;;;;4.60;2.78;;;43.60;41.60;;;;;;4835759;29;20309;-73
2023/05/26 15:47:10;;;;;;;4.68;2.85;;;43.50;41.00;;;;;;4851462;29;20258;-73
2023/05/26 15:49:36;;;;;;;4.00;2.67;;;43.90;40.60;;;;;;4852273;29;20150;-73
2023/05/26 15:52:02;;;;;;;6.30;3.08;;;44.00;40.40;;;;;;4836001;29;20041;-73
2023/05/26 15:54:28;;;;;;;6.28;3.28;;;43.40;40.30;;;;;;4847716;29;20223;-73
2023/05/26 15:56:53;;;;;;;4.75;3.10;;;42.90;41.30;;;;;;4858753;29;20051;-73
2023/05/26 15:59:19;;;;;;;5.20;3.15;;;42.50;41.00;;;;;;4859347;29;20049;-73
2023/05/26 16:01:45;;;;;;;5.28;2.97;;;42.60;41.50;;;;;;4851436;29;20331;-72
2023/05/26 16:04:11;;;;;;;5.47;2.95;;;42.00;40.70;;;;;;4835208;29;20229;-72
2023/05/26 16:06:36;;;;;;;6.03;3.33;;;41.70;41.20;;;;;;4851887;29;20033;-73
2023/05/26 16:09:04;;;;;;;6.15;3.30;;;41.60;41.30;;;;;;4852286;29;20204;-73
2023/05/26 16:11:30;;;;;;;5.53;3.20;;;41.50;41.60;;;;;;4850979;29;20089;-73
2023/05/26 16:13:56;;;;;;;5.55;3.30;;;41.20;41.60;;;;;;4851494;29;20041;-73
2023/05/26 16:16:21;;;;;;;6.55;3.10;;;41.90;41.30;;;;;;4850802;29;20227;-73
2023/05/26 16:18:48;;;;;;;6.68;2.97;;;41.50;41.40;;;;;;4851973;29;20311;-73
2023/05/26 16:21:14;;;;;;;6.82;3.20;;;42.00;41.20;;;;;;4851286;29;20045;-73
2023/05/26 16:23:40;;;;;;;5.25;2.90;;;40.90;41.50;;;;;;4851601;29;20311;-72
2023/05/26 16:26:06;;;;;;;5.20;3.00;;;40.60;41.50;;;;;;4835578;29;20093;-72
2023/05/26 16:28:32;;;;;;;6.18;3.20;;;39.80;42.30;;;;;;4834896;29;20113;-72
2023/05/26 16:30:57;;;;;;;5.68;3.40;;;39.60;42.30;;;;;;4851643;29;20224;-71
2023/05/26 16:33:23;;;;;;;4.82;2.97;;;39.40;42.60;;;;;;4850892;29;20046;-71
2023/05/26 16:35:50;;;;;;;6.13;3.15;;;39.70;42.70;;;;;;4835298;29;20042;-74
2023/05/26 16:38:17;;;;;;;5.13;3.05;;;40.30;42.30;;;;;;4850895;29;20045;-74
2023/05/26 16:40:43;;;;;;;5.77;3.23;;;39.80;42.30;;;;;;4854486;29;20232;-73
2023/05/26 16:43:09;;;;;;;5.93;3.15;;;39.00;42.60;;;;;;4854921;29;20045;-74
2023/05/26 16:45:35;;;;;;;4.78;3.20;;;37.50;43.60;;;;;;4855123;29;20034;-73
2023/05/26 16:48:01;;;;;;;6.05;3.25;;;35.90;44.80;;;;;;4855219;29;20045;-74
2023/05/26 16:50:27;;;;;;;6.90;3.47;;;34.50;46.40;;;;;;4838160;29;20025;-74
2023/05/26 16:52:53;;;;;;;7.80;3.50;;;33.50;47.50;;;;;;4857475;29;20271;-73
2023/05/26 16:55:19;;;;;;;4.25;2.97;;;33.00;48.10;;;;;;4872862;29;20026;-73
2023/05/26 16:57:45;;;;;;;6.43;3.58;;;32.80;48.40;;;;;;4873173;29;20045;-71
2023/05/26 17:00:11;;;;;;;6.15;3.60;;;32.50;49.40;;;;;;4873097;29;20029;-74
2023/05/26 17:02:37;;;;;;;6.50;3.40;;;33.30;48.20;;;;;;4871713;29;20052;-75
2023/05/26 17:05:03;;;;;;;7.22;3.08;;;33.80;47.60;;;;;;4861903;29;20037;-74
2023/05/26 17:07:29;;;;;;;5.72;3.03;;;34.50;47.00;;;;;;4872920;29;20293;-72
2023/05/26 17:09:55;;;;;;;5.28;3.47;;;35.30;46.30;;;;;;4856864;29;20067;-74
2023/05/26 17:12:21;;;;;;;5.50;3.17;;;35.80;46.00;;;;;;4872876;29;20029;-73
2023/05/26 17:14:47;;;;;;;5.47;3.03;;;36.00;45.30;;;;;;4873336;29;20112;-74
2023/05/26 17:17:13;;;;;;;5.88;3.50;;;36.00;45.50;;;;;;4872453;29;20049;-74
2023/05/26 17:19:38;;;;;;;5.82;3.60;;;36.20;45.40;;;;;;4873074;29;20093;-73
2023/05/26 17:22:04;;;;;;;7.85;4.45;;;36.30;45.30;;;;;;4856278;29;20053;-72
2023/05/26 17:24:31;;;;;;;6.15;3.22;;;36.60;45.10;;;;;;4872466;29;20052;-73
2023/05/26 17:26:57;;;;;;;6.50;3.47;;;36.40;44.90;;;;;;4872917;29;20037;-74
2023/05/26 17:29:24;;;;;;;6.68;3.10;;;35.90;45.10;;;;;;4872411;29;20454;-74
2023/05/26 17:31:50;;;;;;;6.53;2.88;;;35.90;45.50;;;;;;4872984;29;20025;-73
2023/05/26 17:34:16;;;;;;;5.80;3.08;;;35.70;45.40;;;;;;4872592;29;20386;-72
2023/05/26 17:36:42;;;;;;;6.97;3.30;;;35.30;45.60;;;;;;4872827;29;20145;-74
2023/05/26 17:39:08;;;;;;;6.72;3.10;;;35.00;45.90;;;;;;4872895;29;20101;-75
2023/05/26 17:41:35;;;;;;;6.85;3.58;;;34.70;46.10;;;;;;4872183;29;20070;-74
2023/05/26 17:44:01;;;;;;;5.95;3.13;;;34.20;46.30;;;;;;4872635;29;20049;-75
2023/05/26 17:46:26;;;;;;;6.55;3.67;;;33.60;46.80;;;;;;4872252;29;20044;-74